Aérodrome :
LOGIN :

S'inscrire | Disclaimer

   EN    FR    IT 

 










Légende :    VFR   VFR Marginal   IFR   IFR Intensif   IFR Très Intensif
Visi : 
Plafond : 
>= 8 km
>= 3000ft
5 à 8 km
1000 à 3000 ft
1500m à 5 km
500 à 1000 ft
800 à 1500m
200 à 500 ft
< 800m
< 200 ft
Symboles :   Orages  Brouillard  Fortes neiges  Fortes précipitations  Vent > 20 kt
SIGMETs :   Divers  Orages  Givrage  Turbulence  Onde Orograph.  Cendres Volcan.







- Altitude de l'aérodrome : 526 ft
- Code IATA : LTN
- Voir les cartes d'approche


EGGW - London Luton

DERNIER METAR :
  • 232020Z AUTO 23009KT 9999 BKN029 12/07 Q1015

METARs EXPIRÉS :
  • 231950Z AUTO 23012KT 9999 NCD 12/07 Q1015
  • 231920Z AUTO 24012KT 9999 FEW049 12/07 Q1015
  • 231850Z AUTO 24015KT 9999 BKN049 13/06 Q1014
  • 231820Z AUTO 24015KT 9999 BKN048 13/06 Q1015
  • 231750Z 25015KT CAVOK 13/06 Q1015

TAF TAF EGGW
Valide du 23 à 18h jusqu'au 24 à 18h UTC


231702Z 2318/2418 25012KT 9999 FEW030
TEMPO 2318/2324 23015G25KT
PROB30
TEMPO 2321/2324 8000 -RA
BECMG 2400/2403 8000 -RA BKN010
TEMPO 2400/2418 4000 RADZ BKN005
PROB30
TEMPO 2402/2418 BKN003
ATIS : +44 1582 395 204
Pas de NOTAMs connus pour ce terrain.



MET'MAP, la Météo Aéronautique d'un coup d'oeil ! - Copyright ORBIFLY Décembre 2007 - Disclaimer

ORBIFLY MET'MAP TEAM :

Programmation & Développement : Alexandra Zaïnal
Conception & Développement : Baudouin d'Aumeries
Co-Programmation & Développement : Marc-Olivier Méhu
Soutien technique & logistique : Manuel Goepfert

Contact : metmap@orbifly.com




SOURCES & CREDITS :

   NOAA